Liberty Grace — WADN — position and weather

sailwx.info

Track history (hours):
 
Tides and Currents Weather Stations Pressure Air Temp Water Temp Dewpoint Dewpoint Depression Visibility Wind Speed Wind Dir Waves Ship Positions

Liberty Grace

Owner: Liberty Shipping Group, LLC, LAKE SUCCESS, NY. More information available from US FCC via Universal Licensing System and Coast Guard Vessel Documentation Center.

Last reported at 2016-Jul-31 04:32 UTC. Time now 2016-Jul-31 05:27 UTC.
Position N 09°31' W 013°43'.

Type: Cargo ship. MMSI: 338219000.

Date/timePositionNaut miles runAvg speedWind from/ knotsBaromVisibWave heightAir tempDewpointWater temp
2016-Jul-31 04:32N 09°31' W 013°43'0 0.0
2016-Jul-31 03:32N 09°31' W 013°43'0 0.0
2016-Jul-31 02:32N 09°31' W 013°43'0 0.0
2016-Jul-31 01:32N 09°31' W 013°43'0 0.0
2016-Jul-31 00:32N 09°31' W 013°43'0 0.0
2016-Jul-30 22:32N 09°31' W 013°43'0 0.0
2016-Jul-30 21:32N 09°31' W 013°43'0 0.0
2016-Jul-30 20:32N 09°31' W 013°43'0 0.0
2016-Jul-30 19:32N 09°31' W 013°43'0 0.0
2016-Jul-30 18:32N 09°31' W 013°43'1 0.6
2016-Jul-30 17:33N 09°30' W 013°44'4 4.0
2016-Jul-30 16:33N 09°26' W 013°44'1 1.1
2016-Jul-30 15:32N 09°27' W 013°43'1 1.0
2016-Jul-30 14:32N 09°26' W 013°43'0 0.0
2016-Jul-30 13:32N 09°26' W 013°43'0 0.0
2016-Jul-30 12:32N 09°26' W 013°43'2 4.5
2016-Jul-30 12:00N 09°24' W 013°42'2 5.2 260 / 101013.5 5.4 0.523.021.6
2016-Jul-30 11:32N 09°26' W 013°43'0 0.0
2016-Jul-29 21:32N 09°26' W 013°43'0 0.0
2016-Jul-29 20:32N 09°26' W 013°43'0 0.0
2016-Jul-29 19:29N 09°26' W 013°43'0 0.1
2016-Jul-29 18:32N 09°26' W 013°43'0 0.1
2016-Jul-29 17:32N 09°26' W 013°43'0 0.0
2016-Jul-29 16:32N 09°26' W 013°43'0 0.0
2016-Jul-29 15:32N 09°26' W 013°43'2 4.4
2016-Jul-29 15:00N 09°24' W 013°42'2 5.2 230 / 181011.2 5.4 0.525.020.730.0
2016-Jul-29 14:32N 09°26' W 013°43'0 0.0
2016-Jul-29 13:32N 09°26' W 013°43'0 0.0
2016-Jul-29 12:32N 09°26' W 013°43'2 4.5
2016-Jul-29 12:00N 09°24' W 013°42'2 5.1 270 / 161013.0 1.1 0.524.022.6
2016-Jul-29 11:32N 09°26' W 013°43'0 0.1
2016-Jul-29 10:32N 09°26' W 013°43'0 0.1
2016-Jul-29 09:32N 09°26' W 013°43'0 0.0
2016-Jul-29 03:32N 09°26' W 013°43'0 0.0
2016-Jul-29 02:32N 09°26' W 013°43'0 0.0
2016-Jul-29 01:32N 09°26' W 013°43'0 0.0
2016-Jul-29 00:32N 09°26' W 013°43'2 4.5
2016-Jul-29 00:00N 09°24' W 013°42'2 5.3 210 / 81013.0 5.4 30.027.4
2016-Jul-28 23:32N 09°26' W 013°43'0 0.1
2016-Jul-28 22:32N 09°26' W 013°43'0 0.1
2016-Jul-28 21:32N 09°26' W 013°43'0 0.1
2016-Jul-28 20:32N 09°26' W 013°43'0 0.0
2016-Jul-28 19:32N 09°26' W 013°43'0 0.0
2016-Jul-28 18:32N 09°26' W 013°43'0 0.0
2016-Jul-28 17:32N 09°26' W 013°43'0 0.1
2016-Jul-28 16:32N 09°26' W 013°43'0 0.1
2016-Jul-28 15:32N 09°26' W 013°43'2 4.5
2016-Jul-28 15:00N 09°24' W 013°42'2 4.7 190 / 101012.010.8 0.529.023.530.0
2016-Jul-28 14:29N 09°26' W 013°43'0 0.0
2016-Jul-28 13:32N 09°26' W 013°43'0 0.0
2016-Jul-28 12:32N 09°26' W 013°43'2 4.5
2016-Jul-28 12:00N 09°24' W 013°42'2 5.2 260 / 81012.5 5.4 0.525.022.2
2016-Jul-28 11:32N 09°26' W 013°43'0 0.0
2016-Jul-28 10:32N 09°26' W 013°43'0 0.0
2016-Jul-28 09:32N 09°26' W 013°43'0 0.0
2016-Jul-28 02:32N 09°26' W 013°43'0 0.0
2016-Jul-28 01:32N 09°26' W 013°43'0 0.0
2016-Jul-28 00:32N 09°26' W 013°43'0 0.0
2016-Jul-27 23:32N 09°26' W 013°43'0 0.0
2016-Jul-27 22:32N 09°26' W 013°43'0 0.2
2016-Jul-27 21:32N 09°26' W 013°43'0 0.0
2016-Jul-27 17:32N 09°26' W 013°43'0 0.0
2016-Jul-27 16:32N 09°26' W 013°43'0 0.0
2016-Jul-27 15:32N 09°26' W 013°43'2 4.2
2016-Jul-27 15:00N 09°24' W 013°42'2 4.8 170 / 51010.010.8 0.526.024.630.0
2016-Jul-27 14:32N 09°26' W 013°43'0 0.1
2016-Jul-27 13:32N 09°26' W 013°43'0 0.1
2016-Jul-27 12:32N 09°26' W 013°43'2 4.3
2016-Jul-27 12:00N 09°24' W 013°42'2 5.1 320 / 61012.0 2.2 22.020.5
2016-Jul-27 11:32N 09°26' W 013°43'0 0.0
2016-Jul-27 10:32N 09°26' W 013°43'0 0.1
2016-Jul-27 09:32N 09°26' W 013°43'2 0.2
2016-Jul-27 00:00N 09°24' W 013°42'2 1.6 280 / 101012.0 25.022.2
2016-Jul-26 22:32N 09°26' W 013°43'0 0.0
2016-Jul-26 21:32N 09°26' W 013°43'0 0.0
2016-Jul-26 20:32N 09°26' W 013°43'0 0.0
2016-Jul-26 19:32N 09°26' W 013°43'0 0.1
2016-Jul-26 18:32N 09°26' W 013°43'0 0.1
2016-Jul-26 17:32N 09°26' W 013°43'0 0.0
2016-Jul-26 16:32N 09°26' W 013°43'0 0.0
2016-Jul-26 15:32N 09°26' W 013°43'0 0.1
2016-Jul-26 14:32N 09°26' W 013°43'2 4.2
2016-Jul-26 14:00N 09°24' W 013°42'0 0.0 240 / 121012.010.8 0.527.024.330.0
2016-Jul-26 12:00N 09°24' W 013°42'2 4.0 240 / 81013.5 2.2 0.524.021.1
2016-Jul-26 11:23N 09°26' W 013°43'0 0.0
2016-Jul-26 10:32N 09°26' W 013°43'0 0.0
2016-Jul-26 09:32N 09°26' W 013°43'0 0.0
2016-Jul-26 06:32N 09°26' W 013°43'0 0.1
2016-Jul-26 05:32N 09°26' W 013°43'0 0.0
2016-Jul-26 04:32N 09°26' W 013°43'0 0.0
2016-Jul-26 03:32N 09°26' W 013°43'0 0.0
2016-Jul-26 02:29N 09°26' W 013°43'0 0.1
2016-Jul-26 01:32N 09°26' W 013°43'0 0.1
2016-Jul-26 00:32N 09°26' W 013°43'0 0.0
2016-Jul-25 23:32N 09°26' W 013°43'0 0.0
2016-Jul-25 22:32N 09°26' W 013°43'0 0.0
2016-Jul-25 21:32N 09°26' W 013°43'0 0.0
2016-Jul-25 20:32N 09°26' W 013°43'0 0.0
2016-Jul-25 19:29N 09°26' W 013°43'0 0.1
2016-Jul-25 18:32N 09°26' W 013°43'0 0.1
2016-Jul-25 17:32N 09°26' W 013°43'0 0.1
2016-Jul-25 16:32N 09°26' W 013°43'0 0.0
2016-Jul-25 15:32N 09°26' W 013°43'2 4.3
2016-Jul-25 15:00N 09°24' W 013°42'2 4.9 220 / 141012.0 5.4 0.527.025.630.0
2016-Jul-25 14:32N 09°26' W 013°43'0 0.1
2016-Jul-25 13:32N 09°26' W 013°43'2 1.5
2016-Jul-25 12:00N 09°24' W 013°42'2 0.5 240 / 91012.5 5.4 0.524.022.6
2016-Jul-25 07:11N 09°26' W 013°43'0 0.0
2016-Jul-25 00:32N 09°26' W 013°43'2 4.3
2016-Jul-25 00:00N 09°24' W 013°42'2 4.7 240 / 81013.0 5.4 24.022.6
2016-Jul-24 23:29N 09°26' W 013°43'0 0.0
2016-Jul-24 22:32N 09°26' W 013°43'0 0.0
2016-Jul-24 21:32N 09°26' W 013°43'0 0.0
2016-Jul-24 20:32N 09°26' W 013°43'0 0.0
2016-Jul-24 19:32N 09°26' W 013°43'0 0.0
2016-Jul-24 18:29N 09°26' W 013°43'0 0.0
2016-Jul-24 17:32N 09°26' W 013°43'2 0.9
2016-Jul-24 15:00N 09°24' W 013°42'2 4.9 220 / 121012.010.8 0.526.023.230.0
2016-Jul-24 14:32N 09°26' W 013°43'0 0.0
2016-Jul-24 13:32N 09°26' W 013°43'0 0.0
2016-Jul-24 12:32N 09°26' W 013°43'2 4.3
2016-Jul-24 12:00N 09°24' W 013°42'2 5.1 270 / 81013.010.8 0.526.023.2
2016-Jul-24 11:32N 09°26' W 013°43'0 0.0
2016-Jul-24 10:32N 09°26' W 013°43'0 0.0
2016-Jul-24 09:32N 09°26' W 013°43'0 0.0
2016-Jul-24 08:32N 09°26' W 013°43'0 0.0
2016-Jul-24 07:32N 09°26' W 013°43'0 0.0
2016-Jul-24 06:32N 09°26' W 013°43'0 0.0
2016-Jul-24 05:32N 09°26' W 013°43'0 0.2
2016-Jul-24 04:32N 09°26' W 013°43'0 0.0
2016-Jul-24 03:32N 09°26' W 013°43'0 0.0
2016-Jul-24 02:32N 09°26' W 013°43'0 0.0
2016-Jul-24 01:32N 09°26' W 013°43'0 0.1
2016-Jul-24 00:32N 09°26' W 013°43'0 0.0
2016-Jul-23 18:32N 09°26' W 013°43'0 0.0
2016-Jul-23 17:32N 09°26' W 013°43'0 0.2
2016-Jul-23 16:32N 09°26' W 013°43'0 0.0
2016-Jul-23 15:32N 09°26' W 013°43'0 0.0
2016-Jul-23 14:32N 09°26' W 013°43'2 4.2
2016-Jul-23 14:00N 09°24' W 013°42'2 4.9 240 / 161014.0 5.4 0.526.023.230.0
2016-Jul-23 13:32N 09°26' W 013°43'0 0.0
2016-Jul-23 12:20N 09°26' W 013°43'2 6.7
2016-Jul-23 12:00N 09°24' W 013°42'2 5.0 270 / 181014.0 5.4 0.523.023.0
2016-Jul-23 11:32N 09°26' W 013°43'0 0.0
2016-Jul-23 10:32N 09°26' W 013°43'0 0.1
2016-Jul-23 09:32N 09°26' W 013°43'0 0.0
2016-Jul-23 08:32N 09°26' W 013°43'0 0.0
2016-Jul-23 07:32N 09°26' W 013°43'0 0.0
2016-Jul-23 06:32N 09°26' W 013°43'0 0.0
2016-Jul-23 04:32N 09°26' W 013°43'0 0.1
2016-Jul-23 03:32N 09°26' W 013°43'0 0.0
2016-Jul-23 02:32N 09°26' W 013°43'0 0.1
2016-Jul-23 01:32N 09°26' W 013°43'0 0.0
2016-Jul-23 00:32N 09°26' W 013°43'0 0.1
2016-Jul-22 23:32N 09°26' W 013°43'0 0.0
2016-Jul-22 20:29N 09°26' W 013°43'0 0.0
2016-Jul-22 19:32N 09°26' W 013°43'0 0.0
2016-Jul-22 18:32N 09°26' W 013°43'0 0.0
2016-Jul-22 17:32N 09°26' W 013°43'0 0.0
2016-Jul-22 16:29N 09°26' W 013°43'0 0.2
2016-Jul-22 15:32N 09°26' W 013°43'2 4.3
2016-Jul-22 15:00N 09°24' W 013°42'2 5.0 200 / 91012.0 5.4 0.527.024.330.0
2016-Jul-22 14:32N 09°26' W 013°43'0 0.0
2016-Jul-22 13:32N 09°26' W 013°43'0 0.1
2016-Jul-22 12:32N 09°26' W 013°43'2 4.2
2016-Jul-22 12:00N 09°24' W 013°42'2 4.9 999 / 11014.510.8 0.524.021.1
2016-Jul-22 11:32N 09°26' W 013°43'0 0.1
2016-Jul-22 10:32N 09°26' W 013°43'2 0.2
2016-Jul-22 00:00N 09°24' W 013°42'2 4.5 240 / 91014.0 5.4 25.022.2
2016-Jul-21 23:29N 09°26' W 013°43'0 0.0
2016-Jul-21 22:32N 09°26' W 013°43'0 0.0
2016-Jul-21 21:32N 09°26' W 013°43'0 0.0
2016-Jul-21 20:32N 09°26' W 013°43'0 0.0
2016-Jul-21 19:32N 09°26' W 013°43'0 0.0
2016-Jul-21 18:32N 09°26' W 013°43'0 0.0
2016-Jul-21 17:32N 09°26' W 013°43'0 0.0
2016-Jul-21 16:32N 09°26' W 013°43'0 0.1
2016-Jul-21 13:32N 09°26' W 013°43'0 0.0
2016-Jul-21 12:32N 09°26' W 013°43'2 4.3
2016-Jul-21 12:00N 09°24' W 013°42'2 5.1 999 / 11014.010.8 0.524.021.1
2016-Jul-21 11:32N 09°26' W 013°43'0 0.2
2016-Jul-21 10:32N 09°26' W 013°43'0 0.0
2016-Jul-21 09:32N 09°26' W 013°43'  
Track history (hours):
 
Tides and Currents Weather Stations Pressure Air Temp Water Temp Dewpoint Dewpoint Depression Visibility Wind Speed Wind Dir Waves Ship Positions

Liberty Grace

Owner: Liberty Shipping Group, LLC, LAKE SUCCESS, NY. More information available from US FCC via Universal Licensing System and Coast Guard Vessel Documentation Center.

Last reported at 2016-Jul-31 04:32 UTC. Time now 2016-Jul-31 05:27 UTC.
Position N 09°31' W 013°43'.

Type: Cargo ship. MMSI: 338219000.

Date/timePositionNaut miles runAvg speedWind from/ knotsBaromVisibWave heightAir tempDewpointWater temp
2016-Jul-31 04:32N 09°31' W 013°43'0 0.0
2016-Jul-31 03:32N 09°31' W 013°43'0 0.0
2016-Jul-31 02:32N 09°31' W 013°43'0 0.0
2016-Jul-31 01:32N 09°31' W 013°43'0 0.0
2016-Jul-31 00:32N 09°31' W 013°43'0 0.0
2016-Jul-30 22:32N 09°31' W 013°43'0 0.0
2016-Jul-30 21:32N 09°31' W 013°43'0 0.0
2016-Jul-30 20:32N 09°31' W 013°43'0 0.0
2016-Jul-30 19:32N 09°31' W 013°43'0 0.0
2016-Jul-30 18:32N 09°31' W 013°43'1 0.6
2016-Jul-30 17:33N 09°30' W 013°44'4 4.0
2016-Jul-30 16:33N 09°26' W 013°44'1 1.1
2016-Jul-30 15:32N 09°27' W 013°43'1 1.0
2016-Jul-30 14:32N 09°26' W 013°43'0 0.0
2016-Jul-30 13:32N 09°26' W 013°43'0 0.0
2016-Jul-30 12:32N 09°26' W 013°43'2 4.5
2016-Jul-30 12:00N 09°24' W 013°42'2 5.2 260 / 101013.5 5.4 0.523.021.6
2016-Jul-30 11:32N 09°26' W 013°43'0 0.0
2016-Jul-29 21:32N 09°26' W 013°43'0 0.0
2016-Jul-29 20:32N 09°26' W 013°43'0 0.0
2016-Jul-29 19:29N 09°26' W 013°43'0 0.1
2016-Jul-29 18:32N 09°26' W 013°43'0 0.1
2016-Jul-29 17:32N 09°26' W 013°43'0 0.0
2016-Jul-29 16:32N 09°26' W 013°43'0 0.0
2016-Jul-29 15:32N 09°26' W 013°43'2 4.4
2016-Jul-29 15:00N 09°24' W 013°42'2 5.2 230 / 181011.2 5.4 0.525.020.730.0
2016-Jul-29 14:32N 09°26' W 013°43'0 0.0
2016-Jul-29 13:32N 09°26' W 013°43'0 0.0
2016-Jul-29 12:32N 09°26' W 013°43'2 4.5
2016-Jul-29 12:00N 09°24' W 013°42'2 5.1 270 / 161013.0 1.1 0.524.022.6
2016-Jul-29 11:32N 09°26' W 013°43'0 0.1
2016-Jul-29 10:32N 09°26' W 013°43'0 0.1
2016-Jul-29 09:32N 09°26' W 013°43'0 0.0
2016-Jul-29 03:32N 09°26' W 013°43'0 0.0
2016-Jul-29 02:32N 09°26' W 013°43'0 0.0
2016-Jul-29 01:32N 09°26' W 013°43'0 0.0
2016-Jul-29 00:32N 09°26' W 013°43'2 4.5
2016-Jul-29 00:00N 09°24' W 013°42'2 5.3 210 / 81013.0 5.4 30.027.4
2016-Jul-28 23:32N 09°26' W 013°43'0 0.1
2016-Jul-28 22:32N 09°26' W 013°43'0 0.1
2016-Jul-28 21:32N 09°26' W 013°43'0 0.1
2016-Jul-28 20:32N 09°26' W 013°43'0 0.0
2016-Jul-28 19:32N 09°26' W 013°43'0 0.0
2016-Jul-28 18:32N 09°26' W 013°43'0 0.0
2016-Jul-28 17:32N 09°26' W 013°43'0 0.1
2016-Jul-28 16:32N 09°26' W 013°43'0 0.1
2016-Jul-28 15:32N 09°26' W 013°43'2 4.5
2016-Jul-28 15:00N 09°24' W 013°42'2 4.7 190 / 101012.010.8 0.529.023.530.0
2016-Jul-28 14:29N 09°26' W 013°43'0 0.0
2016-Jul-28 13:32N 09°26' W 013°43'0 0.0
2016-Jul-28 12:32N 09°26' W 013°43'2 4.5
2016-Jul-28 12:00N 09°24' W 013°42'2 5.2 260 / 81012.5 5.4 0.525.022.2
2016-Jul-28 11:32N 09°26' W 013°43'0 0.0
2016-Jul-28 10:32N 09°26' W 013°43'0 0.0
2016-Jul-28 09:32N 09°26' W 013°43'0 0.0
2016-Jul-28 02:32N 09°26' W 013°43'0 0.0
2016-Jul-28 01:32N 09°26' W 013°43'0 0.0
2016-Jul-28 00:32N 09°26' W 013°43'0 0.0
2016-Jul-27 23:32N 09°26' W 013°43'0 0.0
2016-Jul-27 22:32N 09°26' W 013°43'0 0.2
2016-Jul-27 21:32N 09°26' W 013°43'0 0.0
2016-Jul-27 17:32N 09°26' W 013°43'0 0.0
2016-Jul-27 16:32N 09°26' W 013°43'0 0.0
2016-Jul-27 15:32N 09°26' W 013°43'2 4.2
2016-Jul-27 15:00N 09°24' W 013°42'2 4.8 170 / 51010.010.8 0.526.024.630.0
2016-Jul-27 14:32N 09°26' W 013°43'0 0.1
2016-Jul-27 13:32N 09°26' W 013°43'0 0.1
2016-Jul-27 12:32N 09°26' W 013°43'2 4.3
2016-Jul-27 12:00N 09°24' W 013°42'2 5.1 320 / 61012.0 2.2 22.020.5
2016-Jul-27 11:32N 09°26' W 013°43'0 0.0
2016-Jul-27 10:32N 09°26' W 013°43'0 0.1
2016-Jul-27 09:32N 09°26' W 013°43'2 0.2
2016-Jul-27 00:00N 09°24' W 013°42'2 1.6 280 / 101012.0 25.022.2
2016-Jul-26 22:32N 09°26' W 013°43'0 0.0
2016-Jul-26 21:32N 09°26' W 013°43'0 0.0
2016-Jul-26 20:32N 09°26' W 013°43'0 0.0
2016-Jul-26 19:32N 09°26' W 013°43'0 0.1
2016-Jul-26 18:32N 09°26' W 013°43'0 0.1
2016-Jul-26 17:32N 09°26' W 013°43'0 0.0
2016-Jul-26 16:32N 09°26' W 013°43'0 0.0
2016-Jul-26 15:32N 09°26' W 013°43'0 0.1
2016-Jul-26 14:32N 09°26' W 013°43'2 4.2
2016-Jul-26 14:00N 09°24' W 013°42'0 0.0 240 / 121012.010.8 0.527.024.330.0
2016-Jul-26 12:00N 09°24' W 013°42'2 4.0 240 / 81013.5 2.2 0.524.021.1
2016-Jul-26 11:23N 09°26' W 013°43'0 0.0
2016-Jul-26 10:32N 09°26' W 013°43'0 0.0
2016-Jul-26 09:32N 09°26' W 013°43'0 0.0
2016-Jul-26 06:32N 09°26' W 013°43'0 0.1
2016-Jul-26 05:32N 09°26' W 013°43'0 0.0
2016-Jul-26 04:32N 09°26' W 013°43'0 0.0
2016-Jul-26 03:32N 09°26' W 013°43'0 0.0
2016-Jul-26 02:29N 09°26' W 013°43'0 0.1
2016-Jul-26 01:32N 09°26' W 013°43'0 0.1
2016-Jul-26 00:32N 09°26' W 013°43'0 0.0
2016-Jul-25 23:32N 09°26' W 013°43'0 0.0
2016-Jul-25 22:32N 09°26' W 013°43'0 0.0
2016-Jul-25 21:32N 09°26' W 013°43'0 0.0
2016-Jul-25 20:32N 09°26' W 013°43'0 0.0
2016-Jul-25 19:29N 09°26' W 013°43'0 0.1
2016-Jul-25 18:32N 09°26' W 013°43'0 0.1
2016-Jul-25 17:32N 09°26' W 013°43'0 0.1
2016-Jul-25 16:32N 09°26' W 013°43'0 0.0
2016-Jul-25 15:32N 09°26' W 013°43'2 4.3
2016-Jul-25 15:00N 09°24' W 013°42'2 4.9 220 / 141012.0 5.4 0.527.025.630.0
2016-Jul-25 14:32N 09°26' W 013°43'0 0.1
2016-Jul-25 13:32N 09°26' W 013°43'2 1.5
2016-Jul-25 12:00N 09°24' W 013°42'2 0.5 240 / 91012.5 5.4 0.524.022.6
2016-Jul-25 07:11N 09°26' W 013°43'0 0.0
2016-Jul-25 00:32N 09°26' W 013°43'2 4.3
2016-Jul-25 00:00N 09°24' W 013°42'2 4.7 240 / 81013.0 5.4 24.022.6
2016-Jul-24 23:29N 09°26' W 013°43'0 0.0
2016-Jul-24 22:32N 09°26' W 013°43'0 0.0
2016-Jul-24 21:32N 09°26' W 013°43'0 0.0
2016-Jul-24 20:32N 09°26' W 013°43'0 0.0
2016-Jul-24 19:32N 09°26' W 013°43'0 0.0
2016-Jul-24 18:29N 09°26' W 013°43'0 0.0
2016-Jul-24 17:32N 09°26' W 013°43'2 0.9
2016-Jul-24 15:00N 09°24' W 013°42'2 4.9 220 / 121012.010.8 0.526.023.230.0
2016-Jul-24 14:32N 09°26' W 013°43'0 0.0
2016-Jul-24 13:32N 09°26' W 013°43'0 0.0
2016-Jul-24 12:32N 09°26' W 013°43'2 4.3
2016-Jul-24 12:00N 09°24' W 013°42'2 5.1 270 / 81013.010.8 0.526.023.2
2016-Jul-24 11:32N 09°26' W 013°43'0 0.0
2016-Jul-24 10:32N 09°26' W 013°43'0 0.0
2016-Jul-24 09:32N 09°26' W 013°43'0 0.0
2016-Jul-24 08:32N 09°26' W 013°43'0 0.0
2016-Jul-24 07:32N 09°26' W 013°43'0 0.0
2016-Jul-24 06:32N 09°26' W 013°43'0 0.0
2016-Jul-24 05:32N 09°26' W 013°43'0 0.2
2016-Jul-24 04:32N 09°26' W 013°43'0 0.0
2016-Jul-24 03:32N 09°26' W 013°43'0 0.0
2016-Jul-24 02:32N 09°26' W 013°43'0 0.0
2016-Jul-24 01:32N 09°26' W 013°43'0 0.1
2016-Jul-24 00:32N 09°26' W 013°43'0 0.0
2016-Jul-23 18:32N 09°26' W 013°43'0 0.0
2016-Jul-23 17:32N 09°26' W 013°43'0 0.2
2016-Jul-23 16:32N 09°26' W 013°43'0 0.0
2016-Jul-23 15:32N 09°26' W 013°43'0 0.0
2016-Jul-23 14:32N 09°26' W 013°43'2 4.2
2016-Jul-23 14:00N 09°24' W 013°42'2 4.9 240 / 161014.0 5.4 0.526.023.230.0
2016-Jul-23 13:32N 09°26' W 013°43'0 0.0
2016-Jul-23 12:20N 09°26' W 013°43'2 6.7
2016-Jul-23 12:00N 09°24' W 013°42'2 5.0 270 / 181014.0 5.4 0.523.023.0
2016-Jul-23 11:32N 09°26' W 013°43'0 0.0
2016-Jul-23 10:32N 09°26' W 013°43'0 0.1
2016-Jul-23 09:32N 09°26' W 013°43'0 0.0
2016-Jul-23 08:32N 09°26' W 013°43'0 0.0
2016-Jul-23 07:32N 09°26' W 013°43'0 0.0
2016-Jul-23 06:32N 09°26' W 013°43'0 0.0
2016-Jul-23 04:32N 09°26' W 013°43'0 0.1
2016-Jul-23 03:32N 09°26' W 013°43'0 0.0
2016-Jul-23 02:32N 09°26' W 013°43'0 0.1
2016-Jul-23 01:32N 09°26' W 013°43'0 0.0
2016-Jul-23 00:32N 09°26' W 013°43'0 0.1
2016-Jul-22 23:32N 09°26' W 013°43'0 0.0
2016-Jul-22 20:29N 09°26' W 013°43'0 0.0
2016-Jul-22 19:32N 09°26' W 013°43'0 0.0
2016-Jul-22 18:32N 09°26' W 013°43'0 0.0
2016-Jul-22 17:32N 09°26' W 013°43'0 0.0
2016-Jul-22 16:29N 09°26' W 013°43'0 0.2
2016-Jul-22 15:32N 09°26' W 013°43'2 4.3
2016-Jul-22 15:00N 09°24' W 013°42'2 5.0 200 / 91012.0 5.4 0.527.024.330.0
2016-Jul-22 14:32N 09°26' W 013°43'0 0.0
2016-Jul-22 13:32N 09°26' W 013°43'0 0.1
2016-Jul-22 12:32N 09°26' W 013°43'2 4.2
2016-Jul-22 12:00N 09°24' W 013°42'2 4.9 999 / 11014.510.8 0.524.021.1
2016-Jul-22 11:32N 09°26' W 013°43'0 0.1
2016-Jul-22 10:32N 09°26' W 013°43'2 0.2
2016-Jul-22 00:00N 09°24' W 013°42'2 4.5 240 / 91014.0 5.4 25.022.2
2016-Jul-21 23:29N 09°26' W 013°43'0 0.0
2016-Jul-21 22:32N 09°26' W 013°43'0 0.0
2016-Jul-21 21:32N 09°26' W 013°43'0 0.0
2016-Jul-21 20:32N 09°26' W 013°43'0 0.0
2016-Jul-21 19:32N 09°26' W 013°43'0 0.0
2016-Jul-21 18:32N 09°26' W 013°43'0 0.0
2016-Jul-21 17:32N 09°26' W 013°43'0 0.0
2016-Jul-21 16:32N 09°26' W 013°43'0 0.1
2016-Jul-21 13:32N 09°26' W 013°43'0 0.0
2016-Jul-21 12:32N 09°26' W 013°43'2 4.3
2016-Jul-21 12:00N 09°24' W 013°42'2 5.1 999 / 11014.010.8 0.524.021.1
2016-Jul-21 11:32N 09°26' W 013°43'0 0.2
2016-Jul-21 10:32N 09°26' W 013°43'0 0.0
2016-Jul-21 09:32N 09°26' W 013°43'  

Dump ship's entire track history